sensor_id;sensor_type;location;lat;lon;timestamp;temperature;humidity
39017;DHT22;24784;45.582;5.276;2024-02-26T00:01:40;7.40;99.90
39017;DHT22;24784;45.582;5.276;2024-02-26T00:04:06;7.40;99.90
39017;DHT22;24784;45.582;5.276;2024-02-26T00:06:32;7.40;99.90
39017;DHT22;24784;45.582;5.276;2024-02-26T00:08:58;7.40;99.90
39017;DHT22;24784;45.582;5.276;2024-02-26T00:11:24;7.50;99.90
39017;DHT22;24784;45.582;5.276;2024-02-26T00:13:50;7.50;99.90
39017;DHT22;24784;45.582;5.276;2024-02-26T00:16:16;7.50;99.90
39017;DHT22;24784;45.582;5.276;2024-02-26T00:18:42;7.50;99.90
39017;DHT22;24784;45.582;5.276;2024-02-26T00:21:07;7.50;99.90
39017;DHT22;24784;45.582;5.276;2024-02-26T00:23:33;7.50;99.90
39017;DHT22;24784;45.582;5.276;2024-02-26T00:25:58;7.50;99.90
39017;DHT22;24784;45.582;5.276;2024-02-26T00:28:24;7.50;99.90
39017;DHT22;24784;45.582;5.276;2024-02-26T00:30:50;7.60;99.90
39017;DHT22;24784;45.582;5.276;2024-02-26T00:33:21;7.60;99.90
39017;DHT22;24784;45.582;5.276;2024-02-26T00:35:47;7.60;99.90
39017;DHT22;24784;45.582;5.276;2024-02-26T00:38:12;7.60;99.90
39017;DHT22;24784;45.582;5.276;2024-02-26T00:40:38;7.60;99.90
39017;DHT22;24784;45.582;5.276;2024-02-26T00:43:04;7.60;99.90
39017;DHT22;24784;45.582;5.276;2024-02-26T00:45:30;7.60;99.90
39017;DHT22;24784;45.582;5.276;2024-02-26T00:47:58;7.60;99.90
39017;DHT22;24784;45.582;5.276;2024-02-26T00:50:24;7.60;99.90
39017;DHT22;24784;45.582;5.276;2024-02-26T00:52:49;7.60;99.90
39017;DHT22;24784;45.582;5.276;2024-02-26T00:55:15;7.60;99.90
39017;DHT22;24784;45.582;5.276;2024-02-26T00:57:42;7.60;99.90
39017;DHT22;24784;45.582;5.276;2024-02-26T01:00:08;7.60;99.90
39017;DHT22;24784;45.582;5.276;2024-02-26T01:02:37;7.50;99.90
39017;DHT22;24784;45.582;5.276;2024-02-26T01:05:04;7.50;99.90
39017;DHT22;24784;45.582;5.276;2024-02-26T01:07:31;7.60;99.90
39017;DHT22;24784;45.582;5.276;2024-02-26T01:10:02;7.60;99.90
39017;DHT22;24784;45.582;5.276;2024-02-26T01:12:28;7.60;99.90
39017;DHT22;24784;45.582;5.276;2024-02-26T01:14:54;7.60;99.90
39017;DHT22;24784;45.582;5.276;2024-02-26T01:17:20;7.50;99.90
39017;DHT22;24784;45.582;5.276;2024-02-26T01:19:46;7.60;99.90
39017;DHT22;24784;45.582;5.276;2024-02-26T01:22:12;7.60;99.90
39017;DHT22;24784;45.582;5.276;2024-02-26T01:24:38;7.60;99.90
39017;DHT22;24784;45.582;5.276;2024-02-26T01:27:04;7.60;99.90
39017;DHT22;24784;45.582;5.276;2024-02-26T01:29:29;7.60;99.90
39017;DHT22;24784;45.582;5.276;2024-02-26T01:31:56;7.60;99.90
39017;DHT22;24784;45.582;5.276;2024-02-26T01:34:21;7.60;99.90
39017;DHT22;24784;45.582;5.276;2024-02-26T01:36:47;7.50;99.90
39017;DHT22;24784;45.582;5.276;2024-02-26T01:39:13;7.50;99.90
39017;DHT22;24784;45.582;5.276;2024-02-26T01:41:40;7.60;99.90
39017;DHT22;24784;45.582;5.276;2024-02-26T01:44:07;7.50;99.90
39017;DHT22;24784;45.582;5.276;2024-02-26T01:46:34;7.50;99.90
39017;DHT22;24784;45.582;5.276;2024-02-26T01:49:02;7.50;99.90
39017;DHT22;24784;45.582;5.276;2024-02-26T01:51:28;7.50;99.90
39017;DHT22;24784;45.582;5.276;2024-02-26T01:53:54;7.50;99.90
39017;DHT22;24784;45.582;5.276;2024-02-26T01:56:21;7.50;99.90
39017;DHT22;24784;45.582;5.276;2024-02-26T01:58:48;7.50;99.90
39017;DHT22;24784;45.582;5.276;2024-02-26T02:01:15;7.50;99.90
39017;DHT22;24784;45.582;5.276;2024-02-26T02:03:43;7.50;99.90
39017;DHT22;24784;45.582;5.276;2024-02-26T02:06:09;7.40;99.90
39017;DHT22;24784;45.582;5.276;2024-02-26T02:08:35;7.40;99.90
39017;DHT22;24784;45.582;5.276;2024-02-26T02:11:01;7.40;99.90
39017;DHT22;24784;45.582;5.276;2024-02-26T02:13:27;7.40;99.90
39017;DHT22;24784;45.582;5.276;2024-02-26T02:15:53;7.40;99.90
39017;DHT22;24784;45.582;5.276;2024-02-26T02:18:19;7.30;99.90
39017;DHT22;24784;45.582;5.276;2024-02-26T02:20:44;7.30;99.90
39017;DHT22;24784;45.582;5.276;2024-02-26T02:23:10;7.30;99.90
39017;DHT22;24784;45.582;5.276;2024-02-26T02:25:36;7.30;99.90
39017;DHT22;24784;45.582;5.276;2024-02-26T02:28:02;7.30;99.90
39017;DHT22;24784;45.582;5.276;2024-02-26T02:30:29;7.30;99.90
39017;DHT22;24784;45.582;5.276;2024-02-26T02:32:57;7.20;99.90
39017;DHT22;24784;45.582;5.276;2024-02-26T02:35:24;7.30;99.90
39017;DHT22;24784;45.582;5.276;2024-02-26T02:37:52;7.30;99.90
39017;DHT22;24784;45.582;5.276;2024-02-26T02:40:18;7.20;99.90
39017;DHT22;24784;45.582;5.276;2024-02-26T02:42:43;7.20;99.90
39017;DHT22;24784;45.582;5.276;2024-02-26T02:45:09;7.10;99.90
39017;DHT22;24784;45.582;5.276;2024-02-26T02:47:38;7.10;99.90
39017;DHT22;24784;45.582;5.276;2024-02-26T02:50:04;7.10;99.90
39017;DHT22;24784;45.582;5.276;2024-02-26T02:52:29;7.10;99.90
39017;DHT22;24784;45.582;5.276;2024-02-26T02:54:55;7.10;99.90
39017;DHT22;24784;45.582;5.276;2024-02-26T02:57:21;7.10;99.90
39017;DHT22;24784;45.582;5.276;2024-02-26T02:59:47;7.00;99.90
39017;DHT22;24784;45.582;5.276;2024-02-26T03:02:12;7.00;99.90
39017;DHT22;24784;45.582;5.276;2024-02-26T03:04:38;7.00;99.90
39017;DHT22;24784;45.582;5.276;2024-02-26T03:07:04;7.00;99.90
39017;DHT22;24784;45.582;5.276;2024-02-26T03:09:29;7.00;99.90
39017;DHT22;24784;45.582;5.276;2024-02-26T03:11:55;7.00;99.90
39017;DHT22;24784;45.582;5.276;2024-02-26T03:14:20;7.00;99.90
39017;DHT22;24784;45.582;5.276;2024-02-26T03:16:46;7.00;99.90
39017;DHT22;24784;45.582;5.276;2024-02-26T03:19:15;7.00;99.90
39017;DHT22;24784;45.582;5.276;2024-02-26T03:21:41;7.00;99.90
39017;DHT22;24784;45.582;5.276;2024-02-26T03:24:07;7.00;99.90
39017;DHT22;24784;45.582;5.276;2024-02-26T03:26:36;6.90;99.90
39017;DHT22;24784;45.582;5.276;2024-02-26T03:29:01;7.00;99.90
39017;DHT22;24784;45.582;5.276;2024-02-26T03:31:28;7.00;99.90
39017;DHT22;24784;45.582;5.276;2024-02-26T03:33:53;7.00;99.90
39017;DHT22;24784;45.582;5.276;2024-02-26T03:36:19;7.00;99.90
39017;DHT22;24784;45.582;5.276;2024-02-26T03:38:47;7.00;99.90
39017;DHT22;24784;45.582;5.276;2024-02-26T03:41:12;7.00;99.90
39017;DHT22;24784;45.582;5.276;2024-02-26T03:43:38;7.00;99.90
39017;DHT22;24784;45.582;5.276;2024-02-26T03:46:06;7.00;99.90
39017;DHT22;24784;45.582;5.276;2024-02-26T03:48:32;7.00;99.90
39017;DHT22;24784;45.582;5.276;2024-02-26T03:50:58;6.90;99.90
39017;DHT22;24784;45.582;5.276;2024-02-26T03:53:23;6.90;99.90
39017;DHT22;24784;45.582;5.276;2024-02-26T03:55:49;6.90;99.90
39017;DHT22;24784;45.582;5.276;2024-02-26T03:58:17;6.90;99.90
39017;DHT22;24784;45.582;5.276;2024-02-26T04:00:43;6.90;99.90
39017;DHT22;24784;45.582;5.276;2024-02-26T04:03:09;6.90;99.90
39017;DHT22;24784;45.582;5.276;2024-02-26T04:05:34;6.80;99.90
39017;DHT22;24784;45.582;5.276;2024-02-26T04:08:00;6.80;99.90
39017;DHT22;24784;45.582;5.276;2024-02-26T04:10:26;6.80;99.90
39017;DHT22;24784;45.582;5.276;2024-02-26T04:12:52;6.70;99.90
39017;DHT22;24784;45.582;5.276;2024-02-26T04:15:17;6.80;99.90
39017;DHT22;24784;45.582;5.276;2024-02-26T04:17:43;6.70;99.90
39017;DHT22;24784;45.582;5.276;2024-02-26T04:20:13;6.70;99.90
39017;DHT22;24784;45.582;5.276;2024-02-26T04:22:39;6.70;99.90
39017;DHT22;24784;45.582;5.276;2024-02-26T04:25:05;6.70;99.90
39017;DHT22;24784;45.582;5.276;2024-02-26T04:27:31;6.80;99.90
39017;DHT22;24784;45.582;5.276;2024-02-26T04:29:56;6.70;99.90
39017;DHT22;24784;45.582;5.276;2024-02-26T04:32:22;6.70;99.90
39017;DHT22;24784;45.582;5.276;2024-02-26T04:34:47;6.70;99.90
39017;DHT22;24784;45.582;5.276;2024-02-26T04:37:13;6.80;99.90
39017;DHT22;24784;45.582;5.276;2024-02-26T04:39:42;6.70;99.90
39017;DHT22;24784;45.582;5.276;2024-02-26T04:42:07;6.70;99.90
39017;DHT22;24784;45.582;5.276;2024-02-26T04:44:33;6.60;99.90
39017;DHT22;24784;45.582;5.276;2024-02-26T04:46:58;6.70;99.90
39017;DHT22;24784;45.582;5.276;2024-02-26T04:49:24;6.70;99.90
39017;DHT22;24784;45.582;5.276;2024-02-26T04:51:50;6.70;99.90
39017;DHT22;24784;45.582;5.276;2024-02-26T04:54:15;6.70;99.90
39017;DHT22;24784;45.582;5.276;2024-02-26T04:56:41;6.70;99.90
39017;DHT22;24784;45.582;5.276;2024-02-26T04:59:07;6.70;99.90
39017;DHT22;24784;45.582;5.276;2024-02-26T05:01:32;6.70;99.90
39017;DHT22;24784;45.582;5.276;2024-02-26T05:03:58;6.70;99.90
39017;DHT22;24784;45.582;5.276;2024-02-26T05:06:24;6.70;99.90
39017;DHT22;24784;45.582;5.276;2024-02-26T05:08:49;6.70;99.90
39017;DHT22;24784;45.582;5.276;2024-02-26T05:11:15;6.70;99.90
39017;DHT22;24784;45.582;5.276;2024-02-26T05:13:41;6.70;99.90
39017;DHT22;24784;45.582;5.276;2024-02-26T05:16:06;6.60;99.90
39017;DHT22;24784;45.582;5.276;2024-02-26T05:18:32;6.60;99.90
39017;DHT22;24784;45.582;5.276;2024-02-26T05:20:58;6.60;99.90
39017;DHT22;24784;45.582;5.276;2024-02-26T05:23:23;6.60;99.90
39017;DHT22;24784;45.582;5.276;2024-02-26T05:25:49;6.60;99.90
39017;DHT22;24784;45.582;5.276;2024-02-26T05:28:15;6.60;99.90
39017;DHT22;24784;45.582;5.276;2024-02-26T05:30:45;6.60;99.90
39017;DHT22;24784;45.582;5.276;2024-02-26T05:33:11;6.70;99.90
39017;DHT22;24784;45.582;5.276;2024-02-26T05:35:37;6.60;99.90
39017;DHT22;24784;45.582;5.276;2024-02-26T05:38:03;6.60;99.90
39017;DHT22;24784;45.582;5.276;2024-02-26T05:40:29;6.60;99.90
39017;DHT22;24784;45.582;5.276;2024-02-26T05:42:55;6.60;99.90
39017;DHT22;24784;45.582;5.276;2024-02-26T05:45:21;6.70;99.90
39017;DHT22;24784;45.582;5.276;2024-02-26T05:47:47;6.70;99.90
39017;DHT22;24784;45.582;5.276;2024-02-26T05:50:13;6.70;99.90
39017;DHT22;24784;45.582;5.276;2024-02-26T05:52:40;6.70;99.90
39017;DHT22;24784;45.582;5.276;2024-02-26T05:55:06;6.60;99.90
39017;DHT22;24784;45.582;5.276;2024-02-26T05:57:35;6.60;99.90
39017;DHT22;24784;45.582;5.276;2024-02-26T06:00:01;6.50;99.90
39017;DHT22;24784;45.582;5.276;2024-02-26T06:02:32;6.50;99.90
39017;DHT22;24784;45.582;5.276;2024-02-26T06:04:58;6.40;99.90
39017;DHT22;24784;45.582;5.276;2024-02-26T06:07:24;6.40;99.90
39017;DHT22;24784;45.582;5.276;2024-02-26T06:09:50;6.40;99.90
39017;DHT22;24784;45.582;5.276;2024-02-26T06:12:16;6.40;99.90
39017;DHT22;24784;45.582;5.276;2024-02-26T06:14:42;6.40;99.90
39017;DHT22;24784;45.582;5.276;2024-02-26T06:17:08;6.30;99.90
39017;DHT22;24784;45.582;5.276;2024-02-26T06:19:34;6.30;99.90
39017;DHT22;24784;45.582;5.276;2024-02-26T06:21:59;6.30;99.90
39017;DHT22;24784;45.582;5.276;2024-02-26T06:24:25;6.30;99.90
39017;DHT22;24784;45.582;5.276;2024-02-26T06:26:50;6.20;99.90
39017;DHT22;24784;45.582;5.276;2024-02-26T06:29:16;6.20;99.90
39017;DHT22;24784;45.582;5.276;2024-02-26T06:31:42;6.20;99.90
39017;DHT22;24784;45.582;5.276;2024-02-26T06:34:08;6.20;99.90
39017;DHT22;24784;45.582;5.276;2024-02-26T06:36:34;6.10;99.90
39017;DHT22;24784;45.582;5.276;2024-02-26T06:39:00;6.10;99.90
39017;DHT22;24784;45.582;5.276;2024-02-26T06:41:25;6.20;99.90
39017;DHT22;24784;45.582;5.276;2024-02-26T06:43:56;6.30;99.90
39017;DHT22;24784;45.582;5.276;2024-02-26T06:46:22;6.40;99.90
39017;DHT22;24784;45.582;5.276;2024-02-26T06:48:48;6.40;99.90
39017;DHT22;24784;45.582;5.276;2024-02-26T06:51:14;6.50;99.90
39017;DHT22;24784;45.582;5.276;2024-02-26T06:53:40;6.50;99.90
39017;DHT22;24784;45.582;5.276;2024-02-26T06:56:06;6.50;99.90
39017;DHT22;24784;45.582;5.276;2024-02-26T06:58:31;6.50;99.90
39017;DHT22;24784;45.582;5.276;2024-02-26T07:00:57;6.50;99.90
39017;DHT22;24784;45.582;5.276;2024-02-26T07:03:22;6.60;99.90
39017;DHT22;24784;45.582;5.276;2024-02-26T07:05:49;6.60;99.90
39017;DHT22;24784;45.582;5.276;2024-02-26T07:08:15;6.60;99.90
39017;DHT22;24784;45.582;5.276;2024-02-26T07:10:41;6.60;99.90
39017;DHT22;24784;45.582;5.276;2024-02-26T07:13:07;6.70;99.90
39017;DHT22;24784;45.582;5.276;2024-02-26T07:15:33;6.70;99.90
39017;DHT22;24784;45.582;5.276;2024-02-26T07:17:58;6.80;99.90
39017;DHT22;24784;45.582;5.276;2024-02-26T07:20:31;6.80;99.90
39017;DHT22;24784;45.582;5.276;2024-02-26T07:22:57;6.90;99.90
39017;DHT22;24784;45.582;5.276;2024-02-26T07:25:23;6.90;99.90
39017;DHT22;24784;45.582;5.276;2024-02-26T07:27:52;7.00;99.90
39017;DHT22;24784;45.582;5.276;2024-02-26T07:30:18;7.00;99.90
39017;DHT22;24784;45.582;5.276;2024-02-26T07:32:44;7.10;99.90
39017;DHT22;24784;45.582;5.276;2024-02-26T07:35:10;7.10;99.90
39017;DHT22;24784;45.582;5.276;2024-02-26T07:37:36;7.10;99.90
39017;DHT22;24784;45.582;5.276;2024-02-26T07:40:01;7.20;99.90
39017;DHT22;24784;45.582;5.276;2024-02-26T07:42:27;7.20;99.90
39017;DHT22;24784;45.582;5.276;2024-02-26T07:44:52;7.30;99.90
39017;DHT22;24784;45.582;5.276;2024-02-26T07:47:19;7.30;99.90
39017;DHT22;24784;45.582;5.276;2024-02-26T07:49:45;7.40;99.90
39017;DHT22;24784;45.582;5.276;2024-02-26T07:52:10;7.50;99.90
39017;DHT22;24784;45.582;5.276;2024-02-26T07:54:36;7.60;99.90
39017;DHT22;24784;45.582;5.276;2024-02-26T07:57:02;7.70;99.90
39017;DHT22;24784;45.582;5.276;2024-02-26T07:59:31;7.70;99.90
39017;DHT22;24784;45.582;5.276;2024-02-26T08:01:57;7.80;99.90
39017;DHT22;24784;45.582;5.276;2024-02-26T08:04:22;7.90;99.90
39017;DHT22;24784;45.582;5.276;2024-02-26T08:06:48;7.90;99.90
39017;DHT22;24784;45.582;5.276;2024-02-26T08:09:14;8.00;99.90
39017;DHT22;24784;45.582;5.276;2024-02-26T08:11:39;8.00;99.90
39017;DHT22;24784;45.582;5.276;2024-02-26T08:14:05;8.00;99.90
39017;DHT22;24784;45.582;5.276;2024-02-26T08:16:30;8.00;99.90
39017;DHT22;24784;45.582;5.276;2024-02-26T08:18:56;8.00;99.90
39017;DHT22;24784;45.582;5.276;2024-02-26T08:21:22;8.10;99.90
39017;DHT22;24784;45.582;5.276;2024-02-26T08:23:47;8.10;99.90
39017;DHT22;24784;45.582;5.276;2024-02-26T08:26:13;8.20;99.90
39017;DHT22;24784;45.582;5.276;2024-02-26T08:28:39;8.30;99.90
39017;DHT22;24784;45.582;5.276;2024-02-26T08:31:04;8.30;99.90
39017;DHT22;24784;45.582;5.276;2024-02-26T08:33:30;8.40;99.90
39017;DHT22;24784;45.582;5.276;2024-02-26T08:35:56;8.50;99.90
39017;DHT22;24784;45.582;5.276;2024-02-26T08:38:22;8.50;99.90
39017;DHT22;24784;45.582;5.276;2024-02-26T08:40:48;8.60;99.90
39017;DHT22;24784;45.582;5.276;2024-02-26T08:43:14;8.80;99.90
39017;DHT22;24784;45.582;5.276;2024-02-26T08:45:39;8.70;99.90
39017;DHT22;24784;45.582;5.276;2024-02-26T08:48:05;8.80;99.90
39017;DHT22;24784;45.582;5.276;2024-02-26T08:50:31;8.80;99.90
39017;DHT22;24784;45.582;5.276;2024-02-26T08:52:57;8.80;99.90
39017;DHT22;24784;45.582;5.276;2024-02-26T08:55:22;8.80;99.90
39017;DHT22;24784;45.582;5.276;2024-02-26T08:57:48;8.80;99.90
39017;DHT22;24784;45.582;5.276;2024-02-26T09:00:14;8.80;99.90
39017;DHT22;24784;45.582;5.276;2024-02-26T09:02:41;8.90;99.90
39017;DHT22;24784;45.582;5.276;2024-02-26T09:05:09;8.90;99.90
39017;DHT22;24784;45.582;5.276;2024-02-26T09:07:35;9.00;99.90
39017;DHT22;24784;45.582;5.276;2024-02-26T09:10:01;9.10;99.90
39017;DHT22;24784;45.582;5.276;2024-02-26T09:12:27;9.10;99.90
39017;DHT22;24784;45.582;5.276;2024-02-26T09:14:53;9.10;99.90
39017;DHT22;24784;45.582;5.276;2024-02-26T09:17:21;9.20;99.90
39017;DHT22;24784;45.582;5.276;2024-02-26T09:19:47;9.30;99.90
39017;DHT22;24784;45.582;5.276;2024-02-26T09:22:12;9.40;99.90
39017;DHT22;24784;45.582;5.276;2024-02-26T09:24:38;9.40;99.90
39017;DHT22;24784;45.582;5.276;2024-02-26T09:27:04;9.50;99.90
39017;DHT22;24784;45.582;5.276;2024-02-26T09:29:29;9.60;99.90
39017;DHT22;24784;45.582;5.276;2024-02-26T09:31:55;9.60;99.90
39017;DHT22;24784;45.582;5.276;2024-02-26T09:34:21;9.70;99.90
39017;DHT22;24784;45.582;5.276;2024-02-26T09:36:46;9.80;99.90
39017;DHT22;24784;45.582;5.276;2024-02-26T09:39:12;9.80;99.90
39017;DHT22;24784;45.582;5.276;2024-02-26T09:41:40;9.90;99.90
39017;DHT22;24784;45.582;5.276;2024-02-26T09:44:06;10.00;99.90
39017;DHT22;24784;45.582;5.276;2024-02-26T09:46:33;10.00;99.90
39017;DHT22;24784;45.582;5.276;2024-02-26T09:48:59;10.00;99.90
39017;DHT22;24784;45.582;5.276;2024-02-26T09:51:24;10.10;99.90
39017;DHT22;24784;45.582;5.276;2024-02-26T09:53:54;10.20;99.90
39017;DHT22;24784;45.582;5.276;2024-02-26T09:56:21;10.30;99.90
39017;DHT22;24784;45.582;5.276;2024-02-26T09:58:47;10.50;99.90
39017;DHT22;24784;45.582;5.276;2024-02-26T10:01:19;10.50;99.90
39017;DHT22;24784;45.582;5.276;2024-02-26T10:04:05;10.60;99.90
39017;DHT22;24784;45.582;5.276;2024-02-26T10:06:31;10.70;99.90
39017;DHT22;24784;45.582;5.276;2024-02-26T10:08:56;10.80;99.90
39017;DHT22;24784;45.582;5.276;2024-02-26T10:11:25;10.90;99.90
39017;DHT22;24784;45.582;5.276;2024-02-26T10:13:50;11.00;99.90
39017;DHT22;24784;45.582;5.276;2024-02-26T10:16:16;11.00;99.90
39017;DHT22;24784;45.582;5.276;2024-02-26T10:18:46;11.10;99.90
39017;DHT22;24784;45.582;5.276;2024-02-26T10:21:12;11.20;99.90
39017;DHT22;24784;45.582;5.276;2024-02-26T10:23:39;11.30;99.90
39017;DHT22;24784;45.582;5.276;2024-02-26T10:26:04;11.40;99.90
39017;DHT22;24784;45.582;5.276;2024-02-26T10:28:30;11.60;99.90
39017;DHT22;24784;45.582;5.276;2024-02-26T10:30:56;11.70;99.90
39017;DHT22;24784;45.582;5.276;2024-02-26T10:33:22;11.80;99.90
39017;DHT22;24784;45.582;5.276;2024-02-26T10:35:48;11.90;99.90
39017;DHT22;24784;45.582;5.276;2024-02-26T10:38:13;12.00;99.90
39017;DHT22;24784;45.582;5.276;2024-02-26T10:40:42;12.00;99.90
39017;DHT22;24784;45.582;5.276;2024-02-26T10:43:08;11.90;99.90
39017;DHT22;24784;45.582;5.276;2024-02-26T10:45:33;12.00;99.90
39017;DHT22;24784;45.582;5.276;2024-02-26T10:48:00;11.90;99.90
39017;DHT22;24784;45.582;5.276;2024-02-26T10:50:26;12.00;99.90
39017;DHT22;24784;45.582;5.276;2024-02-26T10:52:52;12.20;99.90
39017;DHT22;24784;45.582;5.276;2024-02-26T10:55:20;12.30;99.90
39017;DHT22;24784;45.582;5.276;2024-02-26T10:57:47;12.40;99.90
39017;DHT22;24784;45.582;5.276;2024-02-26T11:00:16;12.50;99.90
39017;DHT22;24784;45.582;5.276;2024-02-26T11:02:43;12.60;99.90
39017;DHT22;24784;45.582;5.276;2024-02-26T11:05:11;12.70;99.90
39017;DHT22;24784;45.582;5.276;2024-02-26T11:07:37;12.70;99.90
39017;DHT22;24784;45.582;5.276;2024-02-26T11:10:04;12.80;99.90
39017;DHT22;24784;45.582;5.276;2024-02-26T11:12:35;12.90;99.90
39017;DHT22;24784;45.582;5.276;2024-02-26T11:15:03;13.00;99.90
39017;DHT22;24784;45.582;5.276;2024-02-26T11:17:29;12.90;99.90
39017;DHT22;24784;45.582;5.276;2024-02-26T11:20:00;13.00;99.90
39017;DHT22;24784;45.582;5.276;2024-02-26T11:22:28;13.10;99.90
39017;DHT22;24784;45.582;5.276;2024-02-26T11:24:55;13.20;99.90
39017;DHT22;24784;45.582;5.276;2024-02-26T11:27:29;13.20;99.90
39017;DHT22;24784;45.582;5.276;2024-02-26T11:29:57;13.20;99.90
39017;DHT22;24784;45.582;5.276;2024-02-26T11:32:28;13.40;99.90
39017;DHT22;24784;45.582;5.276;2024-02-26T11:34:56;13.30;99.90
39017;DHT22;24784;45.582;5.276;2024-02-26T11:37:22;13.20;99.90
39017;DHT22;24784;45.582;5.276;2024-02-26T11:39:48;13.20;99.90
39017;DHT22;24784;45.582;5.276;2024-02-26T11:42:16;13.40;99.90
39017;DHT22;24784;45.582;5.276;2024-02-26T11:44:42;13.50;99.90
39017;DHT22;24784;45.582;5.276;2024-02-26T11:47:34;13.50;99.90
39017;DHT22;24784;45.582;5.276;2024-02-26T11:50:35;13.50;99.90
39017;DHT22;24784;45.582;5.276;2024-02-26T11:55:46;13.70;99.90
39017;DHT22;24784;45.582;5.276;2024-02-26T11:58:11;13.80;99.90
39017;DHT22;24784;45.582;5.276;2024-02-26T12:00:40;13.80;99.90
39017;DHT22;24784;45.582;5.276;2024-02-26T12:03:06;13.70;99.10
39017;DHT22;24784;45.582;5.276;2024-02-26T12:05:34;13.80;99.90
39017;DHT22;24784;45.582;5.276;2024-02-26T12:08:06;13.80;99.30
39017;DHT22;24784;45.582;5.276;2024-02-26T12:10:34;13.80;99.30
39017;DHT22;24784;45.582;5.276;2024-02-26T12:13:17;13.90;99.90
39017;DHT22;24784;45.582;5.276;2024-02-26T12:15:43;13.90;98.90
39017;DHT22;24784;45.582;5.276;2024-02-26T12:18:10;13.90;99.40
39017;DHT22;24784;45.582;5.276;2024-02-26T12:20:37;14.00;99.80
39017;DHT22;24784;45.582;5.276;2024-02-26T12:23:03;14.00;99.80
39017;DHT22;24784;45.582;5.276;2024-02-26T12:25:32;14.00;99.80
39017;DHT22;24784;45.582;5.276;2024-02-26T12:27:59;14.00;99.50
39017;DHT22;24784;45.582;5.276;2024-02-26T12:30:25;14.00;99.80
39017;DHT22;24784;45.582;5.276;2024-02-26T12:32:53;14.20;99.90
39017;DHT22;24784;45.582;5.276;2024-02-26T12:35:25;14.10;99.00
39017;DHT22;24784;45.582;5.276;2024-02-26T12:37:51;14.20;99.70
39017;DHT22;24784;45.582;5.276;2024-02-26T12:40:17;14.20;98.60
39017;DHT22;24784;45.582;5.276;2024-02-26T12:42:43;14.30;99.00
39017;DHT22;24784;45.582;5.276;2024-02-26T12:45:10;14.20;97.40
39017;DHT22;24784;45.582;5.276;2024-02-26T12:47:40;14.10;97.40
39017;DHT22;24784;45.582;5.276;2024-02-26T12:50:07;14.10;97.50
39017;DHT22;24784;45.582;5.276;2024-02-26T12:52:40;14.10;97.60
39017;DHT22;24784;45.582;5.276;2024-02-26T12:55:06;14.30;97.70
39017;DHT22;24784;45.582;5.276;2024-02-26T12:57:36;14.20;98.00
39017;DHT22;24784;45.582;5.276;2024-02-26T13:00:07;14.10;97.20
39017;DHT22;24784;45.582;5.276;2024-02-26T13:02:37;14.10;97.40
39017;DHT22;24784;45.582;5.276;2024-02-26T13:05:05;14.00;97.70
39017;DHT22;24784;45.582;5.276;2024-02-26T13:07:32;14.10;97.40
39017;DHT22;24784;45.582;5.276;2024-02-26T13:10:01;14.10;96.90
39017;DHT22;24784;45.582;5.276;2024-02-26T13:12:27;14.20;96.90
39017;DHT22;24784;45.582;5.276;2024-02-26T13:15:00;14.10;96.70
39017;DHT22;24784;45.582;5.276;2024-02-26T13:17:25;14.20;97.70
39017;DHT22;24784;45.582;5.276;2024-02-26T13:19:53;14.20;97.80
39017;DHT22;24784;45.582;5.276;2024-02-26T13:22:22;14.30;97.50
39017;DHT22;24784;45.582;5.276;2024-02-26T13:24:55;14.30;97.90
39017;DHT22;24784;45.582;5.276;2024-02-26T13:27:22;14.20;97.80
39017;DHT22;24784;45.582;5.276;2024-02-26T13:29:48;14.30;97.80
39017;DHT22;24784;45.582;5.276;2024-02-26T13:32:14;14.30;97.90
39017;DHT22;24784;45.582;5.276;2024-02-26T13:34:40;14.40;98.30
39017;DHT22;24784;45.582;5.276;2024-02-26T13:37:05;14.60;97.50
39017;DHT22;24784;45.582;5.276;2024-02-26T13:39:31;14.60;97.90
39017;DHT22;24784;45.582;5.276;2024-02-26T13:41:57;14.40;96.40
39017;DHT22;24784;45.582;5.276;2024-02-26T13:44:23;14.40;96.30
39017;DHT22;24784;45.582;5.276;2024-02-26T13:46:49;14.50;96.30
39017;DHT22;24784;45.582;5.276;2024-02-26T13:49:15;14.50;96.00
39017;DHT22;24784;45.582;5.276;2024-02-26T13:51:41;14.30;96.80
39017;DHT22;24784;45.582;5.276;2024-02-26T13:54:07;14.10;96.90
39017;DHT22;24784;45.582;5.276;2024-02-26T13:56:34;14.00;97.10
39017;DHT22;24784;45.582;5.276;2024-02-26T13:59:00;14.00;97.80
39017;DHT22;24784;45.582;5.276;2024-02-26T14:01:26;14.00;97.60
39017;DHT22;24784;45.582;5.276;2024-02-26T14:03:51;14.00;97.60
39017;DHT22;24784;45.582;5.276;2024-02-26T14:06:20;14.20;97.60
39017;DHT22;24784;45.582;5.276;2024-02-26T14:08:46;14.20;98.00
39017;DHT22;24784;45.582;5.276;2024-02-26T14:11:11;14.20;98.10
39017;DHT22;24784;45.582;5.276;2024-02-26T14:13:37;14.10;97.80
39017;DHT22;24784;45.582;5.276;2024-02-26T14:16:03;14.00;97.80
39017;DHT22;24784;45.582;5.276;2024-02-26T14:18:28;14.00;98.80
39017;DHT22;24784;45.582;5.276;2024-02-26T14:20:54;14.10;99.90
39017;DHT22;24784;45.582;5.276;2024-02-26T14:23:20;14.10;99.90
39017;DHT22;24784;45.582;5.276;2024-02-26T14:25:45;14.30;99.90
39017;DHT22;24784;45.582;5.276;2024-02-26T14:28:11;14.30;97.50
39017;DHT22;24784;45.582;5.276;2024-02-26T14:30:37;14.40;98.20
39017;DHT22;24784;45.582;5.276;2024-02-26T14:33:02;14.60;97.60
39017;DHT22;24784;45.582;5.276;2024-02-26T14:35:28;14.60;97.30
39017;DHT22;24784;45.582;5.276;2024-02-26T14:37:54;14.70;96.90
39017;DHT22;24784;45.582;5.276;2024-02-26T14:40:20;14.50;96.10
39017;DHT22;24784;45.582;5.276;2024-02-26T14:42:46;14.40;96.90
39017;DHT22;24784;45.582;5.276;2024-02-26T14:45:12;14.30;97.50
39017;DHT22;24784;45.582;5.276;2024-02-26T14:47:38;14.30;96.70
39017;DHT22;24784;45.582;5.276;2024-02-26T14:50:04;14.10;96.80
39017;DHT22;24784;45.582;5.276;2024-02-26T14:52:30;14.00;96.90
39017;DHT22;24784;45.582;5.276;2024-02-26T14:54:56;14.00;97.20
39017;DHT22;24784;45.582;5.276;2024-02-26T14:57:24;14.00;97.20
39017;DHT22;24784;45.582;5.276;2024-02-26T14:59:49;14.00;96.90
39017;DHT22;24784;45.582;5.276;2024-02-26T15:02:16;14.00;97.70
39017;DHT22;24784;45.582;5.276;2024-02-26T15:04:42;14.10;97.00
39017;DHT22;24784;45.582;5.276;2024-02-26T15:07:08;14.00;96.50
39017;DHT22;24784;45.582;5.276;2024-02-26T15:09:34;13.90;97.10
39017;DHT22;24784;45.582;5.276;2024-02-26T15:12:00;13.90;96.60
39017;DHT22;24784;45.582;5.276;2024-02-26T15:14:25;13.80;96.80
39017;DHT22;24784;45.582;5.276;2024-02-26T15:16:52;13.80;97.40
39017;DHT22;24784;45.582;5.276;2024-02-26T15:19:17;13.80;97.70
39017;DHT22;24784;45.582;5.276;2024-02-26T15:21:47;14.00;97.50
39017;DHT22;24784;45.582;5.276;2024-02-26T15:24:13;14.70;96.80
39017;DHT22;24784;45.582;5.276;2024-02-26T15:26:41;15.10;95.70
39017;DHT22;24784;45.582;5.276;2024-02-26T15:29:07;15.60;96.10
39017;DHT22;24784;45.582;5.276;2024-02-26T15:31:35;17.00;94.50
39017;DHT22;24784;45.582;5.276;2024-02-26T15:34:02;16.70;92.10
39017;DHT22;24784;45.582;5.276;2024-02-26T15:36:27;15.40;93.80
39017;DHT22;24784;45.582;5.276;2024-02-26T15:38:53;14.40;94.30